Time,TemperatureF,DewpointF,PressureIn,WindDirection,WindDirectionDegrees,WindSpeedMPH,WindSpeedGustMPH,Humidity,HourlyPrecipIn,Conditions,Clouds,dailyrainin,SoftwareType,DateUTC
2013-01-23 00:12:00,47.0,-5.0,-100.00,North,-999,0.0,0.0,11,-99.99,,,-99.99,,2013-01-23 07:12:00,
2013-01-23 00:22:00,47.0,-5.0,-100.00,North,-999,0.0,0.0,11,-99.99,,,-99.99,,2013-01-23 07:22:00,
2013-01-23 00:33:00,47.0,-3.0,-100.00,North,-999,0.0,0.0,12,-99.99,,,-99.99,,2013-01-23 07:33:00,
2013-01-23 01:12:00,46.0,-2.0,-100.00,North,-999,0.0,0.0,13,-99.99,,,-99.99,,2013-01-23 08:12:00,
2013-01-23 01:22:00,46.0,-2.0,-100.00,North,-999,0.0,0.0,13,-99.99,,,-99.99,,2013-01-23 08:22:00,
2013-01-23 01:33:00,47.0,-1.0,-100.00,North,-999,0.0,0.0,13,-99.99,,,-99.99,,2013-01-23 08:33:00,
2013-01-23 02:12:00,47.0,-2.0,-100.00,North,-999,0.0,0.0,13,-99.99,,,-99.99,,2013-01-23 09:12:00,
2013-01-23 02:22:00,47.0,-2.0,-100.00,North,-999,0.0,0.0,13,-99.99,,,-99.99,,2013-01-23 09:22:00,
2013-01-23 02:32:00,42.0,-2.0,-100.00,North,-999,0.0,0.0,15,-99.99,,,-99.99,,2013-01-23 09:32:00,
2013-01-23 03:12:00,41.0,-3.0,-100.00,North,-999,0.0,0.0,15,-99.99,,,-99.99,,2013-01-23 10:12:00,
2013-01-23 03:22:00,41.0,-3.0,-100.00,North,-999,0.0,0.0,15,-99.99,,,-99.99,,2013-01-23 10:22:00,
2013-01-23 03:32:00,41.0,-3.0,-100.00,North,-999,0.0,0.0,15,-99.99,,,-99.99,,2013-01-23 10:32:00,
2013-01-23 03:52:00,42.0,-2.0,-100.00,North,-999,0.0,0.0,15,-99.99,,,-99.99,,2013-01-23 10:52:00,
2013-01-23 04:02:00,42.0,-2.0,-100.00,North,-999,0.0,0.0,15,-99.99,,,-99.99,,2013-01-23 11:02:00,
2013-01-23 04:12:00,42.0,-4.0,-100.00,North,-999,0.0,0.0,14,-99.99,,,-99.99,,2013-01-23 11:12:00,
2013-01-23 04:22:00,42.0,-4.0,-100.00,North,-999,0.0,0.0,14,-99.99,,,-99.99,,2013-01-23 11:22:00,
2013-01-23 04:33:00,42.0,-4.0,-100.00,North,-999,0.0,0.0,14,-99.99,,,-99.99,,2013-01-23 11:33:00,
2013-01-23 04:52:00,38.0,-3.0,-100.00,North,-999,0.0,0.0,17,-99.99,,,-99.99,,2013-01-23 11:52:00,
2013-01-23 05:03:00,38.0,-3.0,-100.00,North,-999,0.0,0.0,17,-99.99,,,-99.99,,2013-01-23 12:03:00,
2013-01-23 05:12:00,39.0,-2.0,-100.00,North,-999,0.0,0.0,17,-99.99,,,-99.99,,2013-01-23 12:12:00,
2013-01-23 05:22:00,39.0,-2.0,-100.00,North,-999,0.0,0.0,17,-99.99,,,-99.99,,2013-01-23 12:22:00,
2013-01-23 05:33:00,39.0,-2.0,-100.00,North,-999,0.0,0.0,17,-99.99,,,-99.99,,2013-01-23 12:33:00,
2013-01-23 05:52:00,38.0,-2.0,-100.00,North,-999,0.0,0.0,18,-99.99,,,-99.99,,2013-01-23 12:52:00,
2013-01-23 06:03:00,38.0,-2.0,-100.00,North,-999,0.0,0.0,18,-99.99,,,-99.99,,2013-01-23 13:03:00,
2013-01-23 06:12:00,37.0,-1.0,-100.00,North,-999,0.0,0.0,19,-99.99,,,-99.99,,2013-01-23 13:12:00,
2013-01-23 06:23:00,37.0,-1.0,-100.00,North,-999,0.0,0.0,19,-99.99,,,-99.99,,2013-01-23 13:23:00,
2013-01-23 06:33:00,37.0,-1.0,-100.00,North,-999,0.0,0.0,19,-99.99,,,-99.99,,2013-01-23 13:33:00,
2013-01-23 06:52:00,41.0,0.0,-100.00,North,-999,0.0,0.0,17,-99.99,,,-99.99,,2013-01-23 13:52:00,
2013-01-23 07:12:00,41.0,-1.0,-100.00,North,-999,0.0,0.0,17,-99.99,,,-99.99,,2013-01-23 14:12:00,
2013-01-23 07:23:00,41.0,-1.0,-100.00,North,-999,0.0,0.0,17,-99.99,,,-99.99,,2013-01-23 14:23:00,
2013-01-23 07:33:00,40.0,-1.0,-100.00,North,-999,0.0,0.0,17,-99.99,,,-99.99,,2013-01-23 14:33:00,
2013-01-23 08:12:00,35.0,-2.0,-100.00,North,-999,0.0,0.0,20,-99.99,,,-99.99,,2013-01-23 15:12:00,
2013-01-23 08:22:00,35.0,-2.0,-100.00,North,-999,0.0,0.0,20,-99.99,,,-99.99,,2013-01-23 15:22:00,
2013-01-23 08:33:00,33.0,-2.0,-100.00,North,-999,0.0,0.0,22,-99.99,,,-99.99,,2013-01-23 15:33:00,
2013-01-23 09:12:00,34.0,1.0,-100.00,North,-999,0.0,0.0,23,-99.99,,,-99.99,,2013-01-23 16:12:00,
2013-01-23 09:22:00,34.0,1.0,-100.00,North,-999,0.0,0.0,23,-99.99,,,-99.99,,2013-01-23 16:22:00,
2013-01-23 09:32:00,36.0,2.0,-100.00,North,-999,0.0,0.0,23,-99.99,,,-99.99,,2013-01-23 16:32:00,
2013-01-23 09:43:00,36.0,2.0,-100.00,North,-999,0.0,0.0,23,-99.99,,,-99.99,,2013-01-23 16:43:00,
2013-01-23 09:52:00,36.0,2.0,-100.00,North,-999,0.0,0.0,23,-99.99,,,-99.99,,2013-01-23 16:52:00,
2013-01-23 10:01:00,37.0,5.0,-100.00,North,-999,0.0,0.0,26,-99.99,,,-99.99,,2013-01-23 17:01:00,
2013-01-23 10:02:00,36.0,2.0,-100.00,North,-999,0.0,0.0,23,-99.99,,,-99.99,,2013-01-23 17:02:00,
2013-01-23 10:12:00,37.0,3.0,-100.00,North,-999,0.0,0.0,23,-99.99,,,-99.99,,2013-01-23 17:12:00,
2013-01-23 10:22:00,37.0,3.0,-100.00,North,-999,0.0,0.0,23,-99.99,,,-99.99,,2013-01-23 17:22:00,
2013-01-23 10:31:00,39.0,7.0,-100.00,North,-999,0.0,0.0,26,-99.99,,,-99.99,,2013-01-23 17:31:00,
2013-01-23 10:33:00,37.0,5.0,-100.00,North,-999,0.0,0.0,26,-99.99,,,-99.99,,2013-01-23 17:33:00,
2013-01-23 10:42:00,37.0,5.0,-100.00,North,-999,0.0,0.0,26,-99.99,,,-99.99,,2013-01-23 17:42:00,
2013-01-23 10:52:00,37.0,5.0,-100.00,North,-999,0.0,0.0,26,-99.99,,,-99.99,,2013-01-23 17:52:00,
2013-01-23 11:01:00,38.0,9.0,-100.00,North,-999,0.0,0.0,30,-99.99,,,-99.99,,2013-01-23 18:01:00,
2013-01-23 11:12:00,39.0,7.0,-100.00,North,-999,0.0,0.0,26,-99.99,,,-99.99,,2013-01-23 18:12:00,
2013-01-23 11:23:00,39.0,7.0,-100.00,North,-999,0.0,0.0,26,-99.99,,,-99.99,,2013-01-23 18:23:00,
2013-01-23 11:52:00,38.0,9.0,-100.00,North,-999,0.0,0.0,30,-99.99,,,-99.99,,2013-01-23 18:52:00,
2013-01-23 12:02:00,36.0,12.0,-100.00,North,-999,0.0,0.0,37,-99.99,,,-99.99,,2013-01-23 19:02:00,
2013-01-23 12:13:00,38.0,11.0,-100.00,North,-999,0.0,0.0,32,-99.99,,,-99.99,,2013-01-23 19:13:00,
2013-01-23 12:22:00,38.0,11.0,-100.00,North,-999,0.0,0.0,32,-99.99,,,-99.99,,2013-01-23 19:22:00,
2013-01-23 12:31:00,36.0,16.0,-100.00,North,-999,0.0,0.0,43,-99.99,,,-99.99,,2013-01-23 19:31:00,
2013-01-23 12:33:00,36.0,12.0,-100.00,North,-999,0.0,0.0,37,-99.99,,,-99.99,,2013-01-23 19:33:00,
2013-01-23 12:43:00,36.0,12.0,-100.00,North,-999,0.0,0.0,37,-99.99,,,-99.99,,2013-01-23 19:43:00,
2013-01-23 12:52:00,36.0,12.0,-100.00,North,-999,0.0,0.0,37,-99.99,,,-99.99,,2013-01-23 19:52:00,
2013-01-23 13:01:00,34.0,16.0,-100.00,North,-999,0.0,0.0,47,-99.99,,,-99.99,,2013-01-23 20:01:00,
2013-01-23 13:12:00,36.0,16.0,-100.00,North,-999,0.0,0.0,43,-99.99,,,-99.99,,2013-01-23 20:12:00,
2013-01-23 13:23:00,36.0,16.0,-100.00,North,-999,0.0,0.0,43,-99.99,,,-99.99,,2013-01-23 20:23:00,
2013-01-23 13:31:00,34.0,17.0,-100.00,North,-999,0.0,0.0,48,-99.99,,,-99.99,,2013-01-23 20:31:00,
2013-01-23 13:53:00,34.0,16.0,-100.00,North,-999,0.0,0.0,47,-99.99,,,-99.99,,2013-01-23 20:53:00,
2013-01-23 14:01:00,34.0,17.0,-100.00,North,-999,0.0,0.0,50,-99.99,,,-99.99,,2013-01-23 21:01:00,
2013-01-23 14:12:00,34.0,17.0,-100.00,North,-999,0.0,0.0,48,-99.99,,,-99.99,,2013-01-23 21:12:00,
2013-01-23 14:22:00,34.0,17.0,-100.00,North,-999,0.0,0.0,48,-99.99,,,-99.99,,2013-01-23 21:22:00,
2013-01-23 14:52:00,34.0,17.0,-100.00,North,-999,0.0,0.0,50,-99.99,,,-99.99,,2013-01-23 21:52:00,
2013-01-23 15:02:00,36.0,21.0,-100.00,North,-999,0.0,0.0,54,-99.99,,,0.00,,2013-01-23 22:02:00,
2013-01-23 15:12:00,33.0,19.0,-100.00,North,-999,0.0,0.0,55,-99.99,,,-99.99,,2013-01-23 22:12:00,
2013-01-23 15:22:00,33.0,19.0,-100.00,North,-999,0.0,0.0,55,-99.99,,,-99.99,,2013-01-23 22:22:00,
2013-01-23 15:33:00,36.0,21.0,-100.00,North,-999,0.0,0.0,54,-99.99,,,0.00,,2013-01-23 22:33:00,
2013-01-23 15:43:00,36.0,21.0,-100.00,North,-999,0.0,0.0,54,-99.99,,,0.00,,2013-01-23 22:43:00,
2013-01-23 15:52:00,36.0,21.0,-100.00,North,-999,0.0,0.0,54,-99.99,,,0.00,,2013-01-23 22:52:00,
2013-01-23 16:01:00,32.0,19.0,-100.00,North,-999,0.0,0.0,59,-99.99,,,0.00,,2013-01-23 23:01:00,
2013-01-23 16:12:00,33.0,19.0,-100.00,North,-999,0.0,0.0,57,-99.99,,,0.00,,2013-01-23 23:12:00,
2013-01-23 16:22:00,33.0,19.0,-100.00,North,-999,0.0,0.0,57,-99.99,,,0.00,,2013-01-23 23:22:00,
2013-01-23 16:33:00,32.0,19.0,-100.00,North,-999,0.0,0.0,59,-99.99,,,0.00,,2013-01-23 23:33:00,
2013-01-23 16:42:00,32.0,19.0,-100.00,North,-999,0.0,0.0,59,-99.99,,,0.00,,2013-01-23 23:42:00,
2013-01-23 16:52:00,32.0,19.0,-100.00,North,-999,0.0,0.0,59,-99.99,,,0.00,,2013-01-23 23:52:00,
2013-01-23 17:01:00,31.0,18.0,-100.00,North,-999,0.0,0.0,59,-99.99,,,0.00,,2013-01-24 00:01:00,
2013-01-23 17:12:00,31.0,19.0,-100.00,North,-999,0.0,0.0,59,-99.99,,,0.00,,2013-01-24 00:12:00,
2013-01-23 17:22:00,31.0,19.0,-100.00,North,-999,0.0,0.0,59,-99.99,,,0.00,,2013-01-24 00:22:00,
2013-01-23 17:32:00,31.0,18.0,-100.00,North,-999,0.0,0.0,59,-99.99,,,0.00,,2013-01-24 00:32:00,
2013-01-23 17:42:00,31.0,18.0,-100.00,North,-999,0.0,0.0,59,-99.99,,,0.00,,2013-01-24 00:42:00,
2013-01-23 17:52:00,31.0,18.0,-100.00,North,-999,0.0,0.0,59,-99.99,,,0.00,,2013-01-24 00:52:00,
2013-01-23 18:12:00,46.0,16.0,-100.00,North,-999,0.0,0.0,30,-99.99,,,0.00,,2013-01-24 01:12:00,
2013-01-23 18:22:00,46.0,16.0,-100.00,North,-999,0.0,0.0,30,-99.99,,,0.00,,2013-01-24 01:22:00,
2013-01-23 18:33:00,44.0,14.0,-100.00,North,-999,0.0,0.0,29,-99.99,,,0.00,,2013-01-24 01:33:00,
2013-01-23 19:12:00,48.0,9.0,-100.00,North,-999,0.0,0.0,20,-99.99,,,0.00,,2013-01-24 02:12:00,
2013-01-23 19:22:00,48.0,9.0,-100.00,North,-999,0.0,0.0,20,-99.99,,,0.00,,2013-01-24 02:22:00,
2013-01-23 19:33:00,49.0,7.0,-100.00,North,-999,0.0,0.0,18,-99.99,,,0.00,,2013-01-24 02:33:00,
2013-01-23 19:42:00,49.0,7.0,-100.00,North,-999,0.0,0.0,18,-99.99,,,0.00,,2013-01-24 02:42:00,
2013-01-23 19:52:00,49.0,7.0,-100.00,North,-999,0.0,0.0,18,-99.99,,,0.00,,2013-01-24 02:52:00,
2013-01-23 20:12:00,49.0,5.0,-100.00,North,-999,0.0,0.0,16,-99.99,,,0.00,,2013-01-24 03:12:00,
2013-01-23 20:22:00,49.0,5.0,-100.00,North,-999,0.0,0.0,16,-99.99,,,0.00,,2013-01-24 03:22:00,
2013-01-23 20:32:00,48.0,5.0,-100.00,North,-999,0.0,0.0,17,-99.99,,,0.00,,2013-01-24 03:32:00,
2013-01-23 21:12:00,48.0,4.0,-100.00,North,-999,0.0,0.0,16,-99.99,,,0.00,,2013-01-24 04:12:00,
2013-01-23 21:22:00,48.0,4.0,-100.00,North,-999,0.0,0.0,16,-99.99,,,0.00,,2013-01-24 04:22:00,
2013-01-23 21:32:00,46.0,4.0,-100.00,North,-999,0.0,0.0,17,-99.99,,,0.00,,2013-01-24 04:32:00,
2013-01-23 22:01:00,45.0,5.0,-100.00,North,-999,0.0,0.0,19,-99.99,,,0.00,,2013-01-24 05:01:00,
2013-01-23 22:12:00,46.0,4.0,-100.00,North,-999,0.0,0.0,17,-99.99,,,0.00,,2013-01-24 05:12:00,
2013-01-23 22:22:00,46.0,4.0,-100.00,North,-999,0.0,0.0,17,-99.99,,,0.00,,2013-01-24 05:22:00,
2013-01-23 22:32:00,45.0,5.0,-100.00,North,-999,0.0,0.0,19,-99.99,,,0.00,,2013-01-24 05:32:00,
2013-01-23 22:42:00,45.0,5.0,-100.00,North,-999,0.0,0.0,19,-99.99,,,0.00,,2013-01-24 05:42:00,
2013-01-23 22:52:00,45.0,5.0,-100.00,North,-999,0.0,0.0,19,-99.99,,,0.00,,2013-01-24 05:52:00,
2013-01-23 23:12:00,47.0,7.0,-100.00,North,-999,0.0,0.0,19,-99.99,,,0.00,,2013-01-24 06:12:00,
2013-01-23 23:22:00,47.0,7.0,-100.00,North,-999,0.0,0.0,19,-99.99,,,0.00,,2013-01-24 06:22:00,
2013-01-23 23:32:00,45.0,4.0,-100.00,North,-999,0.0,0.0,18,-99.99,,,0.00,,2013-01-24 06:32:00,